createdAt,value
2023-04-15T04:05:56.607Z,2.
2023-04-15T04:12:56.515Z,2.
2023-04-15T04:19:56.426Z,2.
2023-04-15T04:20:56.416Z,2.
2023-04-15T04:21:56.407Z,2.
2023-04-15T04:24:56.384Z,2.
2023-04-15T04:29:56.324Z,2.
2023-04-15T04:32:56.349Z,2.
2023-04-15T04:33:56.309Z,2.
2023-04-15T04:34:56.276Z,2.
2023-04-15T04:36:56.255Z,2.
2023-04-15T04:42:56.202Z,2.
2023-04-15T04:44:56.170Z,2.59
2023-04-15T04:48:56.143Z,2.59
2023-04-15T04:54:56.065Z,2.
2023-04-15T04:55:56.051Z,2.70
2023-04-15T04:56:56.045Z,2.50
2023-04-15T04:58:56.020Z,2.59
2023-04-15T04:59:56.009Z,2.59
2023-04-15T05:00:56.038Z,2.79
2023-04-15T05:01:56.053Z,2.
2023-04-15T05:03:56.111Z,2.70
2023-04-15T05:04:55.957Z,2.50
2023-04-15T05:05:55.982Z,2.79
2023-04-15T05:06:55.939Z,2.
2023-04-15T05:07:55.931Z,2.70
2023-04-15T05:08:55.920Z,2.
2023-04-15T05:09:55.920Z,2.79
2023-04-15T05:10:55.906Z,2.79
2023-04-15T05:12:55.876Z,2.59
2023-04-15T05:14:55.866Z,2.90
2023-04-15T05:15:55.890Z,2.70
2023-04-15T05:16:55.839Z,2.70
2023-04-15T05:17:55.870Z,2.40
2023-04-15T05:21:55.822Z,2.70
2023-04-15T05:22:55.780Z,2.50
2023-04-15T05:23:55.772Z,2.50
2023-04-15T05:24:55.763Z,2.79
2023-04-15T05:26:55.738Z,2.79
2023-04-15T05:27:55.725Z,2.50
2023-04-15T05:28:55.720Z,2.70
2023-04-15T05:29:55.712Z,2.70
2023-04-15T05:30:55.733Z,2.59
2023-04-15T05:31:55.690Z,2.59
2023-04-15T05:32:55.755Z,2.70
2023-04-15T05:33:55.675Z,2.
2023-04-15T05:34:55.661Z,2.
2023-04-15T05:35:55.657Z,2.50
2023-04-15T05:36:55.646Z,2.29
2023-04-15T05:37:55.654Z,2.
2023-04-15T05:38:55.616Z,2.59
2023-04-15T05:39:55.614Z,2.40
2023-04-15T05:40:55.597Z,2.70
2023-04-15T05:41:55.591Z,2.
2023-04-15T05:42:55.573Z,2.40
2023-04-15T05:45:55.619Z,2.50
2023-04-15T05:46:55.547Z,2.29
2023-04-15T05:47:55.569Z,2.59
2023-04-15T05:49:55.503Z,2.50
2023-04-15T05:50:55.497Z,2.59
2023-04-15T05:52:55.478Z,2.
2023-04-15T05:54:55.459Z,2.50
2023-04-15T05:55:55.445Z,2.59
2023-04-15T05:57:55.421Z,2.50
2023-04-15T05:58:55.418Z,2.50
2023-04-15T05:59:55.404Z,2.40
2023-04-15T06:00:55.390Z,2.59
2023-04-15T06:01:55.409Z,2.40
2023-04-15T06:02:55.471Z,2.40
2023-04-15T06:03:55.565Z,2.
2023-04-15T06:05:55.346Z,2.40
2023-04-15T06:06:55.334Z,2.29
2023-04-15T06:08:55.317Z,2.
2023-04-15T06:09:55.352Z,2.40
2023-04-15T06:10:55.293Z,2.50
2023-04-15T06:11:55.286Z,2.59
2023-04-15T06:12:55.271Z,2.59
2023-04-15T06:13:55.264Z,2.50
2023-04-15T06:14:55.251Z,2.29
2023-04-15T06:15:55.265Z,2.50
2023-04-15T06:16:55.233Z,2.
2023-04-15T06:17:55.276Z,2.40
2023-04-15T06:19:55.199Z,2.50
2023-04-15T06:20:55.210Z,2.40
2023-04-15T06:21:55.177Z,2.79
2023-04-15T06:22:55.169Z,2.40
2023-04-15T06:23:55.156Z,2.50
2023-04-15T06:24:55.149Z,2.29
2023-04-15T06:26:55.124Z,2.
2023-04-15T06:27:55.117Z,2.50
2023-04-15T06:28:55.106Z,2.50
2023-04-15T06:30:55.088Z,2.50
2023-04-15T06:31:55.175Z,2.
2023-04-15T06:32:55.104Z,2.40
2023-04-15T06:33:55.051Z,2.50
2023-04-15T06:34:55.045Z,2.59
2023-04-15T06:35:55.034Z,2.50
2023-04-15T06:36:55.024Z,2.50
2023-04-15T06:39:54.989Z,3.09
2023-04-15T06:40:54.976Z,3.29
2023-04-15T06:43:54.953Z,3.29
2023-04-15T06:44:54.941Z,3.00
2023-04-15T06:45:54.987Z,3.
2023-04-15T06:46:54.918Z,3.09
2023-04-15T06:47:54.954Z,3.00
2023-04-15T06:49:54.890Z,2.70
2023-04-15T06:51:54.870Z,2.
2023-04-15T06:52:54.851Z,2.50
2023-04-15T06:53:54.866Z,2.59
2023-04-15T06:54:54.835Z,2.29
2023-04-15T06:55:54.825Z,2.29
2023-04-15T06:56:54.817Z,2.29
2023-04-15T06:58:54.790Z,2.59
2023-04-15T06:59:54.808Z,2.
2023-04-15T07:00:54.796Z,2.40
2023-04-15T07:02:54.769Z,2.29
2023-04-15T07:03:54.852Z,2.29
2023-04-15T07:04:54.731Z,2.29
2023-04-15T07:05:54.727Z,2.50
2023-04-15T07:07:54.701Z,2.29
2023-04-15T07:09:54.698Z,2.09
2023-04-15T07:10:54.675Z,2.29
2023-04-15T07:11:54.661Z,2.29
2023-04-15T07:12:54.654Z,2.20
2023-04-15T07:13:54.666Z,2.29
2023-04-15T07:14:54.631Z,2.09
2023-04-15T07:15:54.629Z,2.20
2023-04-15T07:16:54.660Z,2.40
2023-04-15T07:17:54.724Z,2.40
2023-04-15T07:19:54.601Z,2.09
2023-04-15T07:21:54.572Z,2.29
2023-04-15T07:22:54.563Z,2.20
2023-04-15T07:23:54.542Z,2.20
2023-04-15T07:25:54.560Z,2.29
2023-04-15T07:27:54.587Z,2.09
2023-04-15T07:29:54.615Z,2.09
2023-04-15T07:30:54.522Z,2.
2023-04-15T07:31:54.482Z,2.
2023-04-15T07:32:54.495Z,2.09
2023-04-15T07:34:54.425Z,2.40
2023-04-15T07:35:54.414Z,2.29
2023-04-15T07:37:54.396Z,2.29
2023-04-15T07:38:54.384Z,3.00
2023-04-15T07:41:54.352Z,3.29
2023-04-15T07:45:54.370Z,6.09
2023-04-15T07:46:54.305Z,2.70
2023-04-15T07:47:54.335Z,5.30
2023-04-15T07:48:54.286Z,3.59
2023-04-15T07:50:54.265Z,3.59
2023-04-15T07:51:54.251Z,3.20
2023-04-15T07:53:54.232Z,4.00
2023-04-15T07:54:54.223Z,4.00
2023-04-15T07:55:54.222Z,3.70
2023-04-15T07:56:54.207Z,3.90
2023-04-15T07:57:54.204Z,7.30
2023-04-15T07:58:54.185Z,3.79
2023-04-15T08:02:54.370Z,6.50
2023-04-15T08:03:54.218Z,6.19
2023-04-15T08:04:54.181Z,5.59
2023-04-15T08:05:54.120Z,3.79
2023-04-15T08:06:54.105Z,3.50
2023-04-15T08:07:54.100Z,3.20
2023-04-15T08:08:54.084Z,3.
2023-04-15T08:09:54.081Z,3.59
2023-04-15T08:10:54.067Z,4.00
2023-04-15T08:12:54.042Z,3.50
2023-04-15T08:13:54.027Z,3.
2023-04-15T08:14:54.016Z,3.29
2023-04-15T08:15:54.039Z,3.50
2023-04-15T08:16:54.008Z,3.
2023-04-15T08:18:53.987Z,5.90
2023-04-15T08:20:53.960Z,4.59
2023-04-15T08:28:53.876Z,6.
2023-04-15T08:29:53.878Z,7.00
2023-04-15T08:32:53.858Z,3.
2023-04-15T08:34:53.810Z,3.
2023-04-15T08:35:53.805Z,3.
2023-04-15T08:36:53.793Z,3.50
2023-04-15T08:37:53.784Z,3.
2023-04-15T08:38:53.772Z,4.09
2023-04-15T08:40:53.752Z,3.
2023-04-15T08:41:53.744Z,3.20
2023-04-15T08:42:53.733Z,3.40
2023-04-15T08:43:53.728Z,7.69
2023-04-15T08:44:53.712Z,4.50
2023-04-15T08:45:53.697Z,3.
